sensor_id;sensor_type;location;lat;lon;timestamp;P1;durP1;ratioP1;P2;durP2;ratioP2
44810;SDS011;30526;52.184;4.476;2023-08-17T00:02:10;7.85;;;2.95;;
44810;SDS011;30526;52.184;4.476;2023-08-17T00:04:36;6.82;;;2.40;;
44810;SDS011;30526;52.184;4.476;2023-08-17T00:07:02;9.43;;;2.28;;
44810;SDS011;30526;52.184;4.476;2023-08-17T00:09:28;7.40;;;2.60;;
44810;SDS011;30526;52.184;4.476;2023-08-17T00:11:54;6.72;;;2.17;;
44810;SDS011;30526;52.184;4.476;2023-08-17T00:14:20;8.10;;;2.55;;
44810;SDS011;30526;52.184;4.476;2023-08-17T00:16:46;8.63;;;3.45;;
44810;SDS011;30526;52.184;4.476;2023-08-17T00:19:12;7.78;;;2.33;;
44810;SDS011;30526;52.184;4.476;2023-08-17T00:21:38;5.70;;;2.47;;
44810;SDS011;30526;52.184;4.476;2023-08-17T00:24:04;3.50;;;1.90;;
44810;SDS011;30526;52.184;4.476;2023-08-17T00:26:30;8.35;;;2.08;;
44810;SDS011;30526;52.184;4.476;2023-08-17T00:28:56;7.68;;;2.17;;
44810;SDS011;30526;52.184;4.476;2023-08-17T00:31:22;7.57;;;1.98;;
44810;SDS011;30526;52.184;4.476;2023-08-17T00:33:48;8.50;;;2.05;;
44810;SDS011;30526;52.184;4.476;2023-08-17T00:36:14;5.72;;;1.98;;
44810;SDS011;30526;52.184;4.476;2023-08-17T00:38:40;3.83;;;1.60;;
44810;SDS011;30526;52.184;4.476;2023-08-17T00:41:06;4.75;;;1.92;;
44810;SDS011;30526;52.184;4.476;2023-08-17T00:43:32;7.75;;;1.80;;
44810;SDS011;30526;52.184;4.476;2023-08-17T00:45:58;8.38;;;2.40;;
44810;SDS011;30526;52.184;4.476;2023-08-17T00:48:25;5.10;;;1.98;;
44810;SDS011;30526;52.184;4.476;2023-08-17T00:50:52;3.85;;;1.45;;
44810;SDS011;30526;52.184;4.476;2023-08-17T00:53:18;9.03;;;2.13;;
44810;SDS011;30526;52.184;4.476;2023-08-17T00:55:44;5.03;;;2.03;;
44810;SDS011;30526;52.184;4.476;2023-08-17T00:58:11;9.32;;;2.33;;
44810;SDS011;30526;52.184;4.476;2023-08-17T01:00:37;7.28;;;2.33;;
44810;SDS011;30526;52.184;4.476;2023-08-17T01:03:03;6.07;;;2.03;;
44810;SDS011;30526;52.184;4.476;2023-08-17T01:05:29;9.52;;;2.95;;
44810;SDS011;30526;52.184;4.476;2023-08-17T01:07:57;8.50;;;2.05;;
44810;SDS011;30526;52.184;4.476;2023-08-17T01:10:24;5.22;;;2.13;;
44810;SDS011;30526;52.184;4.476;2023-08-17T01:13:05;9.05;;;2.58;;
44810;SDS011;30526;52.184;4.476;2023-08-17T01:15:37;8.80;;;1.98;;
44810;SDS011;30526;52.184;4.476;2023-08-17T01:18:26;3.92;;;2.05;;
44810;SDS011;30526;52.184;4.476;2023-08-17T01:20:51;2.72;;;1.35;;
44810;SDS011;30526;52.184;4.476;2023-08-17T01:25:44;4.70;;;1.75;;
44810;SDS011;30526;52.184;4.476;2023-08-17T01:28:10;8.05;;;2.35;;
44810;SDS011;30526;52.184;4.476;2023-08-17T01:33:27;7.63;;;2.30;;
44810;SDS011;30526;52.184;4.476;2023-08-17T01:36:05;5.30;;;2.10;;
44810;SDS011;30526;52.184;4.476;2023-08-17T01:38:32;7.13;;;2.75;;
44810;SDS011;30526;52.184;4.476;2023-08-17T01:40:58;4.60;;;1.90;;
44810;SDS011;30526;52.184;4.476;2023-08-17T01:43:26;5.75;;;2.47;;
44810;SDS011;30526;52.184;4.476;2023-08-17T01:45:53;10.07;;;2.20;;
44810;SDS011;30526;52.184;4.476;2023-08-17T01:48:19;8.53;;;2.37;;
44810;SDS011;30526;52.184;4.476;2023-08-17T01:50:46;7.93;;;2.30;;
44810;SDS011;30526;52.184;4.476;2023-08-17T01:53:12;9.68;;;2.97;;
44810;SDS011;30526;52.184;4.476;2023-08-17T01:55:38;5.70;;;2.20;;
44810;SDS011;30526;52.184;4.476;2023-08-17T01:58:04;8.48;;;2.60;;
44810;SDS011;30526;52.184;4.476;2023-08-17T02:00:30;6.75;;;2.53;;
44810;SDS011;30526;52.184;4.476;2023-08-17T02:02:57;8.52;;;2.53;;
44810;SDS011;30526;52.184;4.476;2023-08-17T02:05:23;5.78;;;2.58;;
44810;SDS011;30526;52.184;4.476;2023-08-17T02:07:49;8.43;;;2.60;;
44810;SDS011;30526;52.184;4.476;2023-08-17T02:10:15;5.53;;;3.00;;
44810;SDS011;30526;52.184;4.476;2023-08-17T02:12:40;9.02;;;2.85;;
44810;SDS011;30526;52.184;4.476;2023-08-17T02:15:07;5.55;;;2.67;;
44810;SDS011;30526;52.184;4.476;2023-08-17T02:17:33;5.43;;;2.47;;
44810;SDS011;30526;52.184;4.476;2023-08-17T02:19:59;7.78;;;2.78;;
44810;SDS011;30526;52.184;4.476;2023-08-17T02:22:25;18.10;;;3.13;;
44810;SDS011;30526;52.184;4.476;2023-08-17T02:24:51;14.77;;;3.08;;
44810;SDS011;30526;52.184;4.476;2023-08-17T02:27:17;6.25;;;2.72;;
44810;SDS011;30526;52.184;4.476;2023-08-17T02:29:43;5.60;;;2.60;;
44810;SDS011;30526;52.184;4.476;2023-08-17T02:32:09;9.13;;;3.05;;
44810;SDS011;30526;52.184;4.476;2023-08-17T02:34:35;7.05;;;2.58;;
44810;SDS011;30526;52.184;4.476;2023-08-17T02:37:01;10.07;;;2.63;;
44810;SDS011;30526;52.184;4.476;2023-08-17T02:39:27;7.28;;;2.70;;
44810;SDS011;30526;52.184;4.476;2023-08-17T02:41:53;5.95;;;2.70;;
44810;SDS011;30526;52.184;4.476;2023-08-17T02:44:20;6.90;;;2.90;;
44810;SDS011;30526;52.184;4.476;2023-08-17T02:46:46;7.78;;;2.78;;
44810;SDS011;30526;52.184;4.476;2023-08-17T02:49:12;5.32;;;2.63;;
44810;SDS011;30526;52.184;4.476;2023-08-17T02:51:38;10.25;;;3.05;;
44810;SDS011;30526;52.184;4.476;2023-08-17T02:54:04;7.97;;;3.00;;
44810;SDS011;30526;52.184;4.476;2023-08-17T02:56:30;8.40;;;2.88;;
44810;SDS011;30526;52.184;4.476;2023-08-17T02:58:56;11.80;;;2.95;;
44810;SDS011;30526;52.184;4.476;2023-08-17T03:01:22;6.18;;;2.65;;
44810;SDS011;30526;52.184;4.476;2023-08-17T03:03:48;9.77;;;2.78;;
44810;SDS011;30526;52.184;4.476;2023-08-17T03:06:15;12.35;;;3.17;;
44810;SDS011;30526;52.184;4.476;2023-08-17T03:08:41;10.57;;;3.55;;
44810;SDS011;30526;52.184;4.476;2023-08-17T03:11:07;6.75;;;3.03;;
44810;SDS011;30526;52.184;4.476;2023-08-17T03:13:34;8.63;;;2.63;;
44810;SDS011;30526;52.184;4.476;2023-08-17T03:16:00;12.07;;;3.05;;
44810;SDS011;30526;52.184;4.476;2023-08-17T03:18:26;10.60;;;3.65;;
44810;SDS011;30526;52.184;4.476;2023-08-17T03:20:52;4.28;;;2.63;;
44810;SDS011;30526;52.184;4.476;2023-08-17T03:23:18;7.88;;;3.33;;
44810;SDS011;30526;52.184;4.476;2023-08-17T03:25:45;8.68;;;2.90;;
44810;SDS011;30526;52.184;4.476;2023-08-17T03:28:11;7.97;;;2.70;;
44810;SDS011;30526;52.184;4.476;2023-08-17T03:30:37;7.63;;;2.85;;
44810;SDS011;30526;52.184;4.476;2023-08-17T03:33:03;7.93;;;2.70;;
44810;SDS011;30526;52.184;4.476;2023-08-17T03:35:29;6.47;;;2.80;;
44810;SDS011;30526;52.184;4.476;2023-08-17T03:37:55;7.40;;;2.55;;
44810;SDS011;30526;52.184;4.476;2023-08-17T03:40:21;7.45;;;2.63;;
44810;SDS011;30526;52.184;4.476;2023-08-17T03:42:47;5.82;;;2.90;;
44810;SDS011;30526;52.184;4.476;2023-08-17T03:45:13;4.25;;;2.97;;
44810;SDS011;30526;52.184;4.476;2023-08-17T03:47:39;10.20;;;2.55;;
44810;SDS011;30526;52.184;4.476;2023-08-17T03:50:06;6.20;;;2.95;;
44810;SDS011;30526;52.184;4.476;2023-08-17T03:52:32;6.93;;;2.30;;
44810;SDS011;30526;52.184;4.476;2023-08-17T03:54:58;7.70;;;2.70;;
44810;SDS011;30526;52.184;4.476;2023-08-17T03:57:24;5.10;;;2.50;;
44810;SDS011;30526;52.184;4.476;2023-08-17T03:59:50;7.57;;;2.20;;
44810;SDS011;30526;52.184;4.476;2023-08-17T04:02:16;3.85;;;2.25;;
44810;SDS011;30526;52.184;4.476;2023-08-17T04:04:42;8.20;;;2.58;;
44810;SDS011;30526;52.184;4.476;2023-08-17T04:07:08;13.02;;;2.83;;
44810;SDS011;30526;52.184;4.476;2023-08-17T04:09:35;10.98;;;2.92;;
44810;SDS011;30526;52.184;4.476;2023-08-17T04:12:01;5.85;;;2.70;;
44810;SDS011;30526;52.184;4.476;2023-08-17T04:14:29;7.55;;;2.60;;
44810;SDS011;30526;52.184;4.476;2023-08-17T04:16:56;10.23;;;2.83;;
44810;SDS011;30526;52.184;4.476;2023-08-17T04:19:23;5.55;;;2.63;;
44810;SDS011;30526;52.184;4.476;2023-08-17T04:21:49;9.00;;;2.53;;
44810;SDS011;30526;52.184;4.476;2023-08-17T04:24:15;6.93;;;2.80;;
44810;SDS011;30526;52.184;4.476;2023-08-17T04:26:41;12.50;;;2.65;;
44810;SDS011;30526;52.184;4.476;2023-08-17T04:29:07;7.25;;;2.88;;
44810;SDS011;30526;52.184;4.476;2023-08-17T04:31:33;9.32;;;3.05;;
44810;SDS011;30526;52.184;4.476;2023-08-17T04:33:59;9.40;;;2.75;;
44810;SDS011;30526;52.184;4.476;2023-08-17T04:36:25;8.30;;;2.88;;
44810;SDS011;30526;52.184;4.476;2023-08-17T04:38:51;9.32;;;2.90;;
44810;SDS011;30526;52.184;4.476;2023-08-17T04:41:17;9.60;;;3.15;;
44810;SDS011;30526;52.184;4.476;2023-08-17T04:43:43;7.25;;;2.42;;
44810;SDS011;30526;52.184;4.476;2023-08-17T04:46:11;8.95;;;2.88;;
44810;SDS011;30526;52.184;4.476;2023-08-17T04:48:37;10.70;;;3.25;;
44810;SDS011;30526;52.184;4.476;2023-08-17T04:51:03;7.22;;;2.88;;
44810;SDS011;30526;52.184;4.476;2023-08-17T04:53:29;9.43;;;2.80;;
44810;SDS011;30526;52.184;4.476;2023-08-17T04:55:55;9.05;;;2.60;;
44810;SDS011;30526;52.184;4.476;2023-08-17T04:58:21;7.28;;;2.83;;
44810;SDS011;30526;52.184;4.476;2023-08-17T05:00:48;8.00;;;2.80;;
44810;SDS011;30526;52.184;4.476;2023-08-17T05:03:14;10.32;;;3.00;;
44810;SDS011;30526;52.184;4.476;2023-08-17T05:05:40;9.15;;;2.78;;
44810;SDS011;30526;52.184;4.476;2023-08-17T05:08:06;7.10;;;2.60;;
44810;SDS011;30526;52.184;4.476;2023-08-17T05:10:32;7.55;;;2.85;;
44810;SDS011;30526;52.184;4.476;2023-08-17T05:12:58;5.60;;;2.40;;
44810;SDS011;30526;52.184;4.476;2023-08-17T05:15:24;5.88;;;2.20;;
44810;SDS011;30526;52.184;4.476;2023-08-17T05:17:50;8.27;;;2.60;;
44810;SDS011;30526;52.184;4.476;2023-08-17T05:20:16;8.25;;;2.70;;
44810;SDS011;30526;52.184;4.476;2023-08-17T05:25:10;6.25;;;2.35;;
44810;SDS011;30526;52.184;4.476;2023-08-17T05:27:36;6.28;;;2.35;;
44810;SDS011;30526;52.184;4.476;2023-08-17T05:30:02;6.53;;;2.22;;
44810;SDS011;30526;52.184;4.476;2023-08-17T05:32:28;5.43;;;2.40;;
44810;SDS011;30526;52.184;4.476;2023-08-17T05:34:54;7.32;;;2.50;;
44810;SDS011;30526;52.184;4.476;2023-08-17T05:37:20;10.00;;;2.70;;
44810;SDS011;30526;52.184;4.476;2023-08-17T05:39:46;7.72;;;2.50;;
44810;SDS011;30526;52.184;4.476;2023-08-17T05:42:12;7.80;;;2.60;;
44810;SDS011;30526;52.184;4.476;2023-08-17T05:44:38;8.10;;;2.25;;
44810;SDS011;30526;52.184;4.476;2023-08-17T05:47:04;15.85;;;2.83;;
44810;SDS011;30526;52.184;4.476;2023-08-17T05:49:30;9.77;;;2.17;;
44810;SDS011;30526;52.184;4.476;2023-08-17T05:51:56;7.40;;;2.75;;
44810;SDS011;30526;52.184;4.476;2023-08-17T05:54:22;8.07;;;2.60;;
44810;SDS011;30526;52.184;4.476;2023-08-17T05:56:48;8.05;;;2.78;;
44810;SDS011;30526;52.184;4.476;2023-08-17T05:59:14;6.20;;;2.90;;
44810;SDS011;30526;52.184;4.476;2023-08-17T06:01:41;8.73;;;2.65;;
44810;SDS011;30526;52.184;4.476;2023-08-17T06:04:07;8.18;;;3.17;;
44810;SDS011;30526;52.184;4.476;2023-08-17T06:06:33;7.78;;;3.20;;
44810;SDS011;30526;52.184;4.476;2023-08-17T06:08:59;7.33;;;2.87;;
44810;SDS011;30526;52.184;4.476;2023-08-17T06:11:25;7.22;;;2.65;;
44810;SDS011;30526;52.184;4.476;2023-08-17T06:13:51;10.18;;;3.15;;
44810;SDS011;30526;52.184;4.476;2023-08-17T06:16:17;7.55;;;3.03;;
44810;SDS011;30526;52.184;4.476;2023-08-17T06:18:43;9.45;;;3.03;;
44810;SDS011;30526;52.184;4.476;2023-08-17T06:21:09;8.43;;;3.40;;
44810;SDS011;30526;52.184;4.476;2023-08-17T06:23:35;13.02;;;3.08;;
44810;SDS011;30526;52.184;4.476;2023-08-17T06:26:01;3.50;;;2.45;;
44810;SDS011;30526;52.184;4.476;2023-08-17T06:28:28;9.73;;;2.70;;
44810;SDS011;30526;52.184;4.476;2023-08-17T06:30:54;5.43;;;2.42;;
44810;SDS011;30526;52.184;4.476;2023-08-17T06:33:21;10.50;;;2.75;;
44810;SDS011;30526;52.184;4.476;2023-08-17T06:35:47;6.75;;;2.30;;
44810;SDS011;30526;52.184;4.476;2023-08-17T06:38:13;5.13;;;2.30;;
44810;SDS011;30526;52.184;4.476;2023-08-17T06:40:39;8.90;;;2.90;;
44810;SDS011;30526;52.184;4.476;2023-08-17T06:43:05;8.98;;;2.95;;
44810;SDS011;30526;52.184;4.476;2023-08-17T06:45:31;8.07;;;2.63;;
44810;SDS011;30526;52.184;4.476;2023-08-17T06:47:57;15.23;;;3.00;;
44810;SDS011;30526;52.184;4.476;2023-08-17T06:50:23;9.18;;;2.88;;
44810;SDS011;30526;52.184;4.476;2023-08-17T06:52:51;5.70;;;2.45;;
44810;SDS011;30526;52.184;4.476;2023-08-17T06:55:17;9.75;;;2.55;;
44810;SDS011;30526;52.184;4.476;2023-08-17T06:57:43;6.50;;;3.00;;
44810;SDS011;30526;52.184;4.476;2023-08-17T07:00:10;7.35;;;2.45;;
44810;SDS011;30526;52.184;4.476;2023-08-17T07:02:36;7.70;;;2.15;;
44810;SDS011;30526;52.184;4.476;2023-08-17T07:05:03;5.07;;;2.10;;
44810;SDS011;30526;52.184;4.476;2023-08-17T07:07:30;5.32;;;2.08;;
44810;SDS011;30526;52.184;4.476;2023-08-17T07:09:59;4.85;;;2.47;;
44810;SDS011;30526;52.184;4.476;2023-08-17T07:12:25;5.65;;;2.28;;
44810;SDS011;30526;52.184;4.476;2023-08-17T07:14:51;12.00;;;2.60;;
44810;SDS011;30526;52.184;4.476;2023-08-17T07:17:17;5.13;;;2.72;;
44810;SDS011;30526;52.184;4.476;2023-08-17T07:19:43;9.15;;;2.22;;
44810;SDS011;30526;52.184;4.476;2023-08-17T07:22:09;5.35;;;2.30;;
44810;SDS011;30526;52.184;4.476;2023-08-17T07:24:35;8.18;;;2.33;;
44810;SDS011;30526;52.184;4.476;2023-08-17T07:27:01;5.53;;;1.77;;
44810;SDS011;30526;52.184;4.476;2023-08-17T07:29:27;5.70;;;1.83;;
44810;SDS011;30526;52.184;4.476;2023-08-17T07:31:54;7.28;;;2.08;;
44810;SDS011;30526;52.184;4.476;2023-08-17T07:34:23;4.70;;;2.00;;
44810;SDS011;30526;52.184;4.476;2023-08-17T07:36:49;9.82;;;2.22;;
44810;SDS011;30526;52.184;4.476;2023-08-17T07:39:15;5.38;;;1.70;;
44810;SDS011;30526;52.184;4.476;2023-08-17T07:41:41;5.10;;;1.80;;
44810;SDS011;30526;52.184;4.476;2023-08-17T07:44:07;5.80;;;1.95;;
44810;SDS011;30526;52.184;4.476;2023-08-17T07:46:33;4.97;;;1.88;;
44810;SDS011;30526;52.184;4.476;2023-08-17T07:48:59;3.15;;;1.73;;
44810;SDS011;30526;52.184;4.476;2023-08-17T07:51:25;2.92;;;1.67;;
44810;SDS011;30526;52.184;4.476;2023-08-17T07:53:54;5.35;;;1.80;;
44810;SDS011;30526;52.184;4.476;2023-08-17T07:56:21;5.35;;;1.58;;
44810;SDS011;30526;52.184;4.476;2023-08-17T07:58:47;3.97;;;1.52;;
44810;SDS011;30526;52.184;4.476;2023-08-17T08:01:13;5.95;;;1.98;;
44810;SDS011;30526;52.184;4.476;2023-08-17T08:03:39;8.35;;;2.25;;
44810;SDS011;30526;52.184;4.476;2023-08-17T08:06:05;5.28;;;1.90;;
44810;SDS011;30526;52.184;4.476;2023-08-17T08:08:31;6.60;;;1.85;;
44810;SDS011;30526;52.184;4.476;2023-08-17T08:10:58;7.60;;;1.98;;
44810;SDS011;30526;52.184;4.476;2023-08-17T08:13:24;6.25;;;2.00;;
44810;SDS011;30526;52.184;4.476;2023-08-17T08:15:50;5.13;;;1.90;;
44810;SDS011;30526;52.184;4.476;2023-08-17T08:18:16;3.90;;;1.60;;
44810;SDS011;30526;52.184;4.476;2023-08-17T08:20:42;4.90;;;1.73;;
44810;SDS011;30526;52.184;4.476;2023-08-17T08:23:09;3.77;;;2.03;;
44810;SDS011;30526;52.184;4.476;2023-08-17T08:25:35;6.78;;;1.80;;
44810;SDS011;30526;52.184;4.476;2023-08-17T08:28:01;5.03;;;1.40;;
44810;SDS011;30526;52.184;4.476;2023-08-17T08:30:27;5.10;;;1.80;;
44810;SDS011;30526;52.184;4.476;2023-08-17T08:32:53;5.47;;;2.10;;
44810;SDS011;30526;52.184;4.476;2023-08-17T08:35:22;5.07;;;1.83;;
44810;SDS011;30526;52.184;4.476;2023-08-17T08:37:49;10.00;;;1.92;;
44810;SDS011;30526;52.184;4.476;2023-08-17T08:40:15;6.22;;;1.73;;
44810;SDS011;30526;52.184;4.476;2023-08-17T08:42:42;4.15;;;1.90;;
44810;SDS011;30526;52.184;4.476;2023-08-17T08:45:08;5.67;;;1.50;;
44810;SDS011;30526;52.184;4.476;2023-08-17T08:47:35;5.03;;;1.90;;
44810;SDS011;30526;52.184;4.476;2023-08-17T08:50:03;4.25;;;1.73;;
44810;SDS011;30526;52.184;4.476;2023-08-17T08:52:37;6.55;;;1.80;;
44810;SDS011;30526;52.184;4.476;2023-08-17T08:55:15;4.47;;;1.73;;
44810;SDS011;30526;52.184;4.476;2023-08-17T08:57:42;6.40;;;1.85;;
44810;SDS011;30526;52.184;4.476;2023-08-17T09:00:08;5.47;;;1.63;;
44810;SDS011;30526;52.184;4.476;2023-08-17T09:02:35;5.43;;;1.63;;
44810;SDS011;30526;52.184;4.476;2023-08-17T09:05:01;4.38;;;1.58;;
44810;SDS011;30526;52.184;4.476;2023-08-17T09:07:28;4.00;;;1.95;;
44810;SDS011;30526;52.184;4.476;2023-08-17T09:12:21;3.57;;;1.70;;
44810;SDS011;30526;52.184;4.476;2023-08-17T09:14:47;10.30;;;1.77;;
44810;SDS011;30526;52.184;4.476;2023-08-17T09:17:14;4.18;;;1.30;;
44810;SDS011;30526;52.184;4.476;2023-08-17T09:19:40;5.50;;;1.90;;
44810;SDS011;30526;52.184;4.476;2023-08-17T09:22:06;3.90;;;1.52;;
44810;SDS011;30526;52.184;4.476;2023-08-17T09:24:35;5.90;;;1.77;;
44810;SDS011;30526;52.184;4.476;2023-08-17T09:27:04;7.13;;;1.67;;
44810;SDS011;30526;52.184;4.476;2023-08-17T09:29:30;5.65;;;1.63;;
44810;SDS011;30526;52.184;4.476;2023-08-17T09:32:06;5.65;;;1.90;;
44810;SDS011;30526;52.184;4.476;2023-08-17T09:34:32;11.70;;;2.58;;
44810;SDS011;30526;52.184;4.476;2023-08-17T09:37:04;4.43;;;1.50;;
44810;SDS011;30526;52.184;4.476;2023-08-17T09:39:31;4.80;;;1.77;;
44810;SDS011;30526;52.184;4.476;2023-08-17T09:41:57;7.20;;;2.00;;
44810;SDS011;30526;52.184;4.476;2023-08-17T09:44:23;5.80;;;1.58;;
44810;SDS011;30526;52.184;4.476;2023-08-17T09:46:49;3.72;;;1.40;;
44810;SDS011;30526;52.184;4.476;2023-08-17T09:49:17;6.78;;;1.58;;
44810;SDS011;30526;52.184;4.476;2023-08-17T09:51:44;5.25;;;1.80;;
44810;SDS011;30526;52.184;4.476;2023-08-17T09:54:18;7.03;;;2.40;;
44810;SDS011;30526;52.184;4.476;2023-08-17T09:56:46;4.15;;;2.22;;
44810;SDS011;30526;52.184;4.476;2023-08-17T09:59:13;6.50;;;1.70;;
44810;SDS011;30526;52.184;4.476;2023-08-17T10:01:39;10.23;;;1.67;;
44810;SDS011;30526;52.184;4.476;2023-08-17T10:04:05;3.60;;;1.33;;
44810;SDS011;30526;52.184;4.476;2023-08-17T10:06:31;11.23;;;1.70;;
44810;SDS011;30526;52.184;4.476;2023-08-17T10:11:24;3.60;;;1.20;;
44810;SDS011;30526;52.184;4.476;2023-08-17T10:13:55;4.53;;;1.70;;
44810;SDS011;30526;52.184;4.476;2023-08-17T10:16:23;5.30;;;1.65;;
44810;SDS011;30526;52.184;4.476;2023-08-17T10:21:21;4.32;;;1.40;;
44810;SDS011;30526;52.184;4.476;2023-08-17T10:23:48;4.72;;;1.75;;
44810;SDS011;30526;52.184;4.476;2023-08-17T10:26:14;4.68;;;1.77;;
44810;SDS011;30526;52.184;4.476;2023-08-17T10:28:40;4.03;;;1.73;;
44810;SDS011;30526;52.184;4.476;2023-08-17T10:31:07;5.43;;;1.63;;
44810;SDS011;30526;52.184;4.476;2023-08-17T10:33:33;3.50;;;1.42;;
44810;SDS011;30526;52.184;4.476;2023-08-17T10:35:59;7.05;;;2.00;;
44810;SDS011;30526;52.184;4.476;2023-08-17T10:38:26;7.32;;;2.10;;
44810;SDS011;30526;52.184;4.476;2023-08-17T10:41:11;5.75;;;1.85;;
44810;SDS011;30526;52.184;4.476;2023-08-17T10:43:53;5.80;;;1.80;;
44810;SDS011;30526;52.184;4.476;2023-08-17T10:46:19;7.05;;;1.75;;
44810;SDS011;30526;52.184;4.476;2023-08-17T10:48:45;7.05;;;1.77;;
44810;SDS011;30526;52.184;4.476;2023-08-17T10:51:11;4.60;;;1.65;;
44810;SDS011;30526;52.184;4.476;2023-08-17T10:53:42;3.67;;;1.50;;
44810;SDS011;30526;52.184;4.476;2023-08-17T10:58:35;2.58;;;1.48;;
44810;SDS011;30526;52.184;4.476;2023-08-17T11:01:02;7.87;;;1.53;;
44810;SDS011;30526;52.184;4.476;2023-08-17T11:03:28;6.57;;;1.63;;
44810;SDS011;30526;52.184;4.476;2023-08-17T11:05:55;6.60;;;1.67;;
44810;SDS011;30526;52.184;4.476;2023-08-17T11:11:33;4.32;;;1.50;;
44810;SDS011;30526;52.184;4.476;2023-08-17T11:13:34;8.65;;;2.17;;
44810;SDS011;30526;52.184;4.476;2023-08-17T11:16:01;6.93;;;1.60;;
44810;SDS011;30526;52.184;4.476;2023-08-17T11:18:27;6.40;;;2.00;;
44810;SDS011;30526;52.184;4.476;2023-08-17T11:20:54;6.07;;;1.95;;
44810;SDS011;30526;52.184;4.476;2023-08-17T11:23:20;4.35;;;1.95;;
44810;SDS011;30526;52.184;4.476;2023-08-17T11:25:48;5.57;;;1.90;;
44810;SDS011;30526;52.184;4.476;2023-08-17T11:28:16;8.13;;;2.05;;
44810;SDS011;30526;52.184;4.476;2023-08-17T11:30:42;10.95;;;2.28;;
44810;SDS011;30526;52.184;4.476;2023-08-17T11:33:08;15.07;;;3.10;;
44810;SDS011;30526;52.184;4.476;2023-08-17T11:38:01;4.30;;;1.90;;
44810;SDS011;30526;52.184;4.476;2023-08-17T11:40:28;8.38;;;2.78;;
44810;SDS011;30526;52.184;4.476;2023-08-17T11:42:55;6.63;;;2.50;;
44810;SDS011;30526;52.184;4.476;2023-08-17T11:45:21;9.93;;;2.73;;
44810;SDS011;30526;52.184;4.476;2023-08-17T11:47:47;7.17;;;2.23;;
44810;SDS011;30526;52.184;4.476;2023-08-17T11:50:13;4.85;;;1.90;;
44810;SDS011;30526;52.184;4.476;2023-08-17T11:52:39;5.53;;;2.60;;
44810;SDS011;30526;52.184;4.476;2023-08-17T11:55:06;4.88;;;2.00;;
44810;SDS011;30526;52.184;4.476;2023-08-17T11:57:33;6.65;;;2.65;;
44810;SDS011;30526;52.184;4.476;2023-08-17T12:00:00;4.38;;;2.40;;
44810;SDS011;30526;52.184;4.476;2023-08-17T12:02:27;6.72;;;2.40;;
44810;SDS011;30526;52.184;4.476;2023-08-17T12:04:54;3.67;;;1.42;;
44810;SDS011;30526;52.184;4.476;2023-08-17T12:07:21;8.18;;;2.42;;
44810;SDS011;30526;52.184;4.476;2023-08-17T12:09:47;4.00;;;1.90;;
44810;SDS011;30526;52.184;4.476;2023-08-17T12:12:17;6.70;;;2.25;;
44810;SDS011;30526;52.184;4.476;2023-08-17T12:14:43;4.32;;;2.28;;
44810;SDS011;30526;52.184;4.476;2023-08-17T12:17:16;5.70;;;2.30;;
44810;SDS011;30526;52.184;4.476;2023-08-17T12:19:42;5.80;;;2.20;;
44810;SDS011;30526;52.184;4.476;2023-08-17T12:22:08;6.18;;;2.17;;
44810;SDS011;30526;52.184;4.476;2023-08-17T12:24:35;5.18;;;2.10;;
44810;SDS011;30526;52.184;4.476;2023-08-17T12:27:05;5.20;;;2.00;;
44810;SDS011;30526;52.184;4.476;2023-08-17T12:29:31;8.43;;;2.75;;
44810;SDS011;30526;52.184;4.476;2023-08-17T12:32:06;7.78;;;2.45;;
44810;SDS011;30526;52.184;4.476;2023-08-17T12:34:33;4.13;;;1.80;;
44810;SDS011;30526;52.184;4.476;2023-08-17T12:36:59;7.10;;;2.33;;
44810;SDS011;30526;52.184;4.476;2023-08-17T12:39:25;7.95;;;2.30;;
44810;SDS011;30526;52.184;4.476;2023-08-17T12:41:51;3.10;;;1.38;;
44810;SDS011;30526;52.184;4.476;2023-08-17T12:44:17;7.13;;;1.88;;
44810;SDS011;30526;52.184;4.476;2023-08-17T12:49:08;3.88;;;1.92;;
44810;SDS011;30526;52.184;4.476;2023-08-17T12:51:34;3.83;;;1.77;;
44810;SDS011;30526;52.184;4.476;2023-08-17T12:54:00;4.70;;;1.65;;
44810;SDS011;30526;52.184;4.476;2023-08-17T12:56:27;4.78;;;2.05;;
44810;SDS011;30526;52.184;4.476;2023-08-17T13:01:19;7.93;;;2.20;;
44810;SDS011;30526;52.184;4.476;2023-08-17T13:03:45;4.18;;;1.98;;
44810;SDS011;30526;52.184;4.476;2023-08-17T13:06:11;4.70;;;2.10;;
44810;SDS011;30526;52.184;4.476;2023-08-17T13:08:37;3.83;;;1.75;;
44810;SDS011;30526;52.184;4.476;2023-08-17T13:11:03;5.95;;;1.80;;
44810;SDS011;30526;52.184;4.476;2023-08-17T13:13:29;3.95;;;1.92;;
44810;SDS011;30526;52.184;4.476;2023-08-17T13:18:21;4.13;;;1.90;;
44810;SDS011;30526;52.184;4.476;2023-08-17T13:23:13;2.88;;;2.00;;
44810;SDS011;30526;52.184;4.476;2023-08-17T13:25:39;3.10;;;2.05;;
44810;SDS011;30526;52.184;4.476;2023-08-17T13:30:31;5.80;;;1.70;;
44810;SDS011;30526;52.184;4.476;2023-08-17T13:32:57;7.60;;;2.30;;
44810;SDS011;30526;52.184;4.476;2023-08-17T13:35:24;4.03;;;1.92;;
44810;SDS011;30526;52.184;4.476;2023-08-17T13:37:53;5.57;;;2.33;;
44810;SDS011;30526;52.184;4.476;2023-08-17T13:40:19;4.25;;;2.70;;
44810;SDS011;30526;52.184;4.476;2023-08-17T13:45:11;4.55;;;2.15;;
44810;SDS011;30526;52.184;4.476;2023-08-17T13:47:37;7.43;;;2.33;;
44810;SDS011;30526;52.184;4.476;2023-08-17T13:50:03;5.65;;;1.92;;
44810;SDS011;30526;52.184;4.476;2023-08-17T13:52:29;6.68;;;2.15;;
44810;SDS011;30526;52.184;4.476;2023-08-17T13:54:56;5.22;;;2.55;;
44810;SDS011;30526;52.184;4.476;2023-08-17T13:57:22;6.70;;;2.20;;
44810;SDS011;30526;52.184;4.476;2023-08-17T13:59:48;6.05;;;2.05;;
44810;SDS011;30526;52.184;4.476;2023-08-17T14:02:14;8.25;;;2.50;;
44810;SDS011;30526;52.184;4.476;2023-08-17T14:04:40;5.45;;;2.15;;
44810;SDS011;30526;52.184;4.476;2023-08-17T14:07:06;4.30;;;2.10;;
44810;SDS011;30526;52.184;4.476;2023-08-17T14:09:32;5.40;;;2.33;;
44810;SDS011;30526;52.184;4.476;2023-08-17T14:11:58;3.60;;;2.20;;
44810;SDS011;30526;52.184;4.476;2023-08-17T14:14:24;9.52;;;2.38;;
44810;SDS011;30526;52.184;4.476;2023-08-17T14:16:50;4.70;;;2.10;;
44810;SDS011;30526;52.184;4.476;2023-08-17T14:19:16;6.57;;;2.38;;
44810;SDS011;30526;52.184;4.476;2023-08-17T14:21:42;3.65;;;2.40;;
44810;SDS011;30526;52.184;4.476;2023-08-17T14:24:08;4.38;;;2.00;;
44810;SDS011;30526;52.184;4.476;2023-08-17T14:26:35;6.38;;;2.45;;
44810;SDS011;30526;52.184;4.476;2023-08-17T14:29:01;6.37;;;2.77;;
44810;SDS011;30526;52.184;4.476;2023-08-17T14:31:27;4.93;;;2.80;;
44810;SDS011;30526;52.184;4.476;2023-08-17T14:33:53;5.10;;;2.78;;
44810;SDS011;30526;52.184;4.476;2023-08-17T14:36:19;7.38;;;2.70;;
44810;SDS011;30526;52.184;4.476;2023-08-17T14:38:45;4.53;;;2.20;;
44810;SDS011;30526;52.184;4.476;2023-08-17T14:41:12;4.95;;;2.30;;
44810;SDS011;30526;52.184;4.476;2023-08-17T14:43:38;4.60;;;2.20;;
44810;SDS011;30526;52.184;4.476;2023-08-17T14:46:04;5.57;;;2.50;;
44810;SDS011;30526;52.184;4.476;2023-08-17T14:48:30;8.38;;;2.65;;
44810;SDS011;30526;52.184;4.476;2023-08-17T14:50:56;5.93;;;2.47;;
44810;SDS011;30526;52.184;4.476;2023-08-17T14:53:22;6.63;;;2.97;;
44810;SDS011;30526;52.184;4.476;2023-08-17T14:55:48;5.40;;;3.22;;
44810;SDS011;30526;52.184;4.476;2023-08-17T14:58:14;6.47;;;3.17;;
44810;SDS011;30526;52.184;4.476;2023-08-17T15:00:41;5.40;;;3.00;;
44810;SDS011;30526;52.184;4.476;2023-08-17T15:03:07;4.30;;;3.20;;
44810;SDS011;30526;52.184;4.476;2023-08-17T15:05:33;6.33;;;3.10;;
44810;SDS011;30526;52.184;4.476;2023-08-17T15:08:01;4.43;;;2.38;;
44810;SDS011;30526;52.184;4.476;2023-08-17T15:10:27;8.15;;;2.67;;
44810;SDS011;30526;52.184;4.476;2023-08-17T15:12:53;6.53;;;2.77;;
44810;SDS011;30526;52.184;4.476;2023-08-17T15:15:20;8.10;;;2.70;;
44810;SDS011;30526;52.184;4.476;2023-08-17T15:17:46;7.25;;;2.53;;
44810;SDS011;30526;52.184;4.476;2023-08-17T15:20:12;6.20;;;2.67;;